sensor_id;sensor_type;location;lat;lon;timestamp;pressure;altitude;pressure_sealevel;temperature;humidity
52307;BME280;38249;48.920;12.882;2023-01-09T00:01:24;95531.03;;;4.51;59.62
52307;BME280;38249;48.920;12.882;2023-01-09T00:03:53;95519.41;;;4.47;59.73
52307;BME280;38249;48.920;12.882;2023-01-09T00:06:19;95525.00;;;4.28;59.66
52307;BME280;38249;48.920;12.882;2023-01-09T00:08:46;95521.88;;;4.26;60.11
52307;BME280;38249;48.920;12.882;2023-01-09T00:11:13;95512.47;;;4.38;59.58
52307;BME280;38249;48.920;12.882;2023-01-09T00:13:39;95498.84;;;4.30;59.81
52307;BME280;38249;48.920;12.882;2023-01-09T00:16:07;95499.94;;;4.38;59.67
52307;BME280;38249;48.920;12.882;2023-01-09T00:18:34;95498.53;;;4.41;59.75
52307;BME280;38249;48.920;12.882;2023-01-09T00:21:04;95503.09;;;4.58;59.50
52307;BME280;38249;48.920;12.882;2023-01-09T00:23:31;95485.69;;;4.51;59.37
52307;BME280;38249;48.920;12.882;2023-01-09T00:26:02;95478.47;;;4.78;59.13
52307;BME280;38249;48.920;12.882;2023-01-09T00:28:29;95479.56;;;4.68;58.75
52307;BME280;38249;48.920;12.882;2023-01-09T00:30:56;95467.16;;;4.81;59.16
52307;BME280;38249;48.920;12.882;2023-01-09T00:33:24;95465.41;;;4.94;58.71
52307;BME280;38249;48.920;12.882;2023-01-09T00:35:51;95449.88;;;4.87;58.63
52307;BME280;38249;48.920;12.882;2023-01-09T00:38:19;95435.88;;;4.99;58.74
52307;BME280;38249;48.920;12.882;2023-01-09T00:40:46;95422.28;;;4.92;58.80
52307;BME280;38249;48.920;12.882;2023-01-09T00:43:12;95410.19;;;4.86;58.88
52307;BME280;38249;48.920;12.882;2023-01-09T00:45:39;95400.16;;;4.83;58.97
52307;BME280;38249;48.920;12.882;2023-01-09T00:48:08;95382.25;;;4.92;58.97
52307;BME280;38249;48.920;12.882;2023-01-09T00:50:36;95370.66;;;4.79;59.10
52307;BME280;38249;48.920;12.882;2023-01-09T00:53:06;95375.16;;;4.96;59.66
52307;BME280;38249;48.920;12.882;2023-01-09T00:55:35;95370.44;;;5.02;59.53
52307;BME280;38249;48.920;12.882;2023-01-09T00:58:02;95351.91;;;4.97;59.72
52307;BME280;38249;48.920;12.882;2023-01-09T01:00:29;95345.31;;;5.03;59.80
52307;BME280;38249;48.920;12.882;2023-01-09T01:02:55;95341.19;;;5.14;60.05
52307;BME280;38249;48.920;12.882;2023-01-09T01:05:22;95337.97;;;5.30;60.46
52307;BME280;38249;48.920;12.882;2023-01-09T01:08:09;95335.50;;;5.54;60.31
52307;BME280;38249;48.920;12.882;2023-01-09T01:10:37;95338.56;;;5.65;60.31
52307;BME280;38249;48.920;12.882;2023-01-09T01:13:04;95340.22;;;5.57;60.49
52307;BME280;38249;48.920;12.882;2023-01-09T01:15:30;95350.88;;;5.57;60.47
52307;BME280;38249;48.920;12.882;2023-01-09T01:17:57;95356.50;;;5.26;60.57
52307;BME280;38249;48.920;12.882;2023-01-09T01:20:23;95359.88;;;5.14;60.45
52307;BME280;38249;48.920;12.882;2023-01-09T01:22:50;95375.59;;;5.07;60.51
52307;BME280;38249;48.920;12.882;2023-01-09T01:25:17;95378.78;;;4.92;60.49
52307;BME280;38249;48.920;12.882;2023-01-09T01:27:45;95394.50;;;4.76;60.76
52307;BME280;38249;48.920;12.882;2023-01-09T01:30:13;95395.34;;;4.59;61.04
52307;BME280;38249;48.920;12.882;2023-01-09T01:32:40;95401.03;;;4.22;61.54
52307;BME280;38249;48.920;12.882;2023-01-09T01:35:07;95412.78;;;4.12;61.63
52307;BME280;38249;48.920;12.882;2023-01-09T01:37:35;95410.09;;;4.12;61.42
52307;BME280;38249;48.920;12.882;2023-01-09T01:40:04;95408.69;;;4.15;61.36
52307;BME280;38249;48.920;12.882;2023-01-09T01:42:31;95411.66;;;4.13;61.64
52307;BME280;38249;48.920;12.882;2023-01-09T01:45:03;95408.84;;;4.27;61.07
52307;BME280;38249;48.920;12.882;2023-01-09T01:47:34;95410.56;;;4.23;61.13
52307;BME280;38249;48.920;12.882;2023-01-09T01:50:04;95430.66;;;4.21;60.93
52307;BME280;38249;48.920;12.882;2023-01-09T01:52:34;95418.56;;;4.32;60.41
52307;BME280;38249;48.920;12.882;2023-01-09T01:55:04;95423.13;;;4.40;60.49
52307;BME280;38249;48.920;12.882;2023-01-09T01:57:33;95426.88;;;4.39;60.29
52307;BME280;38249;48.920;12.882;2023-01-09T02:00:03;95441.28;;;4.56;60.18
52307;BME280;38249;48.920;12.882;2023-01-09T02:02:31;95454.94;;;4.63;60.21
52307;BME280;38249;48.920;12.882;2023-01-09T02:04:59;95475.63;;;4.66;59.78
52307;BME280;38249;48.920;12.882;2023-01-09T02:07:27;95489.44;;;4.59;59.84
52307;BME280;38249;48.920;12.882;2023-01-09T02:09:54;95506.69;;;4.44;60.24
52307;BME280;38249;48.920;12.882;2023-01-09T02:12:23;95506.84;;;4.48;60.41
52307;BME280;38249;48.920;12.882;2023-01-09T02:14:52;95511.72;;;4.37;60.57
52307;BME280;38249;48.920;12.882;2023-01-09T02:18:01;95504.03;;;4.62;59.92
52307;BME280;38249;48.920;12.882;2023-01-09T02:20:37;95502.47;;;4.61;60.12
52307;BME280;38249;48.920;12.882;2023-01-09T02:23:44;95505.41;;;4.85;59.80
52307;BME280;38249;48.920;12.882;2023-01-09T02:26:37;95502.28;;;4.83;59.61
52307;BME280;38249;48.920;12.882;2023-01-09T02:32:31;95507.34;;;4.76;60.30
52307;BME280;38249;48.920;12.882;2023-01-09T02:35:06;95501.53;;;4.83;59.86
52307;BME280;38249;48.920;12.882;2023-01-09T02:37:44;95488.00;;;4.88;59.63
52307;BME280;38249;48.920;12.882;2023-01-09T02:40:20;95486.75;;;4.94;59.70
52307;BME280;38249;48.920;12.882;2023-01-09T02:42:49;95482.22;;;4.86;59.93
52307;BME280;38249;48.920;12.882;2023-01-09T02:45:17;95482.81;;;4.92;59.68
52307;BME280;38249;48.920;12.882;2023-01-09T02:47:46;95486.41;;;5.13;59.52
52307;BME280;38249;48.920;12.882;2023-01-09T02:50:16;95489.38;;;5.20;59.84
52307;BME280;38249;48.920;12.882;2023-01-09T02:52:56;95488.72;;;5.32;59.54
52307;BME280;38249;48.920;12.882;2023-01-09T02:55:37;95492.63;;;5.35;59.50
52307;BME280;38249;48.920;12.882;2023-01-09T02:58:10;95495.47;;;5.30;59.23
52307;BME280;38249;48.920;12.882;2023-01-09T03:00:51;95494.03;;;5.41;59.20
52307;BME280;38249;48.920;12.882;2023-01-09T03:03:28;95507.56;;;5.44;59.36
52307;BME280;38249;48.920;12.882;2023-01-09T03:06:06;95513.34;;;5.47;59.21
52307;BME280;38249;48.920;12.882;2023-01-09T03:08:37;95504.88;;;5.44;59.62
52307;BME280;38249;48.920;12.882;2023-01-09T03:11:06;95503.78;;;5.46;59.17
52307;BME280;38249;48.920;12.882;2023-01-09T03:13:37;95505.63;;;5.54;59.09
52307;BME280;38249;48.920;12.882;2023-01-09T03:16:08;95498.91;;;5.48;59.23
52307;BME280;38249;48.920;12.882;2023-01-09T03:18:40;95493.09;;;5.46;59.31
52307;BME280;38249;48.920;12.882;2023-01-09T03:21:08;95489.03;;;5.31;59.52
52307;BME280;38249;48.920;12.882;2023-01-09T03:23:46;95485.06;;;5.46;59.50
52307;BME280;38249;48.920;12.882;2023-01-09T03:26:13;95489.19;;;5.25;59.53
52307;BME280;38249;48.920;12.882;2023-01-09T03:28:40;95483.69;;;5.31;59.77
52307;BME280;38249;48.920;12.882;2023-01-09T03:31:07;95485.72;;;5.34;59.38
52307;BME280;38249;48.920;12.882;2023-01-09T03:33:33;95481.66;;;5.36;59.25
52307;BME280;38249;48.920;12.882;2023-01-09T03:36:02;95483.81;;;5.52;59.26
52307;BME280;38249;48.920;12.882;2023-01-09T03:38:29;95472.22;;;5.48;59.26
52307;BME280;38249;48.920;12.882;2023-01-09T03:40:56;95456.66;;;5.41;59.17
52307;BME280;38249;48.920;12.882;2023-01-09T03:43:22;95449.75;;;5.40;59.39
52307;BME280;38249;48.920;12.882;2023-01-09T03:45:49;95446.63;;;5.38;59.58
52307;BME280;38249;48.920;12.882;2023-01-09T03:48:15;95450.84;;;5.39;59.36
52307;BME280;38249;48.920;12.882;2023-01-09T03:50:42;95456.19;;;5.39;59.75
52307;BME280;38249;48.920;12.882;2023-01-09T03:53:11;95468.41;;;5.57;59.41
52307;BME280;38249;48.920;12.882;2023-01-09T03:55:38;95474.06;;;5.56;59.43
52307;BME280;38249;48.920;12.882;2023-01-09T03:58:05;95480.94;;;5.57;59.41
52307;BME280;38249;48.920;12.882;2023-01-09T04:00:31;95480.81;;;5.53;59.47
52307;BME280;38249;48.920;12.882;2023-01-09T04:02:58;95488.31;;;5.60;59.52
52307;BME280;38249;48.920;12.882;2023-01-09T04:05:24;95477.47;;;5.65;59.35
52307;BME280;38249;48.920;12.882;2023-01-09T04:07:51;95478.09;;;5.62;59.38
52307;BME280;38249;48.920;12.882;2023-01-09T04:10:19;95466.13;;;5.68;59.81
52307;BME280;38249;48.920;12.882;2023-01-09T04:12:45;95473.09;;;5.60;59.71
52307;BME280;38249;48.920;12.882;2023-01-09T04:15:12;95469.13;;;5.67;59.68
52307;BME280;38249;48.920;12.882;2023-01-09T04:17:38;95480.44;;;5.72;59.51
52307;BME280;38249;48.920;12.882;2023-01-09T04:20:05;95483.50;;;5.83;59.43
52307;BME280;38249;48.920;12.882;2023-01-09T04:22:32;95481.16;;;5.81;59.38
52307;BME280;38249;48.920;12.882;2023-01-09T04:24:58;95480.50;;;5.85;59.56
52307;BME280;38249;48.920;12.882;2023-01-09T04:27:26;95478.91;;;5.92;59.71
52307;BME280;38249;48.920;12.882;2023-01-09T04:29:53;95483.19;;;5.85;59.53
52307;BME280;38249;48.920;12.882;2023-01-09T04:32:19;95478.78;;;5.89;59.60
52307;BME280;38249;48.920;12.882;2023-01-09T04:34:46;95484.13;;;5.89;59.44
52307;BME280;38249;48.920;12.882;2023-01-09T04:37:12;95485.22;;;5.88;59.73
52307;BME280;38249;48.920;12.882;2023-01-09T04:39:39;95478.59;;;5.94;59.68
52307;BME280;38249;48.920;12.882;2023-01-09T04:42:08;95481.72;;;5.96;59.79
52307;BME280;38249;48.920;12.882;2023-01-09T04:44:36;95485.91;;;6.06;59.89
52307;BME280;38249;48.920;12.882;2023-01-09T04:47:03;95482.34;;;5.93;59.92
52307;BME280;38249;48.920;12.882;2023-01-09T04:49:30;95493.22;;;5.96;59.89
52307;BME280;38249;48.920;12.882;2023-01-09T04:51:56;95490.22;;;5.98;60.11
52307;BME280;38249;48.920;12.882;2023-01-09T04:54:23;95479.78;;;6.05;59.87
52307;BME280;38249;48.920;12.882;2023-01-09T04:56:49;95477.88;;;6.06;59.71
52307;BME280;38249;48.920;12.882;2023-01-09T04:59:16;95483.72;;;6.08;59.96
52307;BME280;38249;48.920;12.882;2023-01-09T05:01:44;95479.06;;;6.17;60.01
52307;BME280;38249;48.920;12.882;2023-01-09T05:04:10;95497.84;;;6.08;60.13
52307;BME280;38249;48.920;12.882;2023-01-09T05:06:38;95490.16;;;6.07;60.10
52307;BME280;38249;48.920;12.882;2023-01-09T05:09:04;95495.63;;;6.10;60.03
52307;BME280;38249;48.920;12.882;2023-01-09T05:11:31;95498.75;;;6.12;59.96
52307;BME280;38249;48.920;12.882;2023-01-09T05:13:57;95500.19;;;6.10;60.19
52307;BME280;38249;48.920;12.882;2023-01-09T05:16:24;95506.78;;;6.12;60.04
52307;BME280;38249;48.920;12.882;2023-01-09T05:18:52;95519.28;;;6.29;60.04
52307;BME280;38249;48.920;12.882;2023-01-09T05:21:21;95511.44;;;6.24;60.09
52307;BME280;38249;48.920;12.882;2023-01-09T05:23:47;95519.47;;;6.24;59.96
52307;BME280;38249;48.920;12.882;2023-01-09T05:26:14;95516.47;;;6.26;59.70
52307;BME280;38249;48.920;12.882;2023-01-09T05:28:40;95519.28;;;6.29;59.75
52307;BME280;38249;48.920;12.882;2023-01-09T05:31:07;95531.19;;;6.32;59.66
52307;BME280;38249;48.920;12.882;2023-01-09T05:33:33;95530.63;;;6.26;59.76
52307;BME280;38249;48.920;12.882;2023-01-09T05:36:01;95539.81;;;6.38;59.72
52307;BME280;38249;48.920;12.882;2023-01-09T05:38:27;95547.88;;;6.29;59.91
52307;BME280;38249;48.920;12.882;2023-01-09T05:40:54;95550.09;;;6.27;59.72
52307;BME280;38249;48.920;12.882;2023-01-09T05:43:21;95559.06;;;6.31;59.90
52307;BME280;38249;48.920;12.882;2023-01-09T05:45:47;95551.69;;;6.28;59.87
52307;BME280;38249;48.920;12.882;2023-01-09T05:48:13;95554.50;;;6.31;59.96
52307;BME280;38249;48.920;12.882;2023-01-09T05:50:40;95562.25;;;6.24;59.94
52307;BME280;38249;48.920;12.882;2023-01-09T05:53:08;95564.09;;;6.32;60.16
52307;BME280;38249;48.920;12.882;2023-01-09T05:55:34;95577.66;;;6.18;60.15
52307;BME280;38249;48.920;12.882;2023-01-09T05:58:01;95572.19;;;6.15;60.11
52307;BME280;38249;48.920;12.882;2023-01-09T06:00:27;95574.84;;;6.15;60.10
52307;BME280;38249;48.920;12.882;2023-01-09T06:02:54;95580.78;;;6.21;60.03
52307;BME280;38249;48.920;12.882;2023-01-09T06:05:20;95572.66;;;6.17;60.02
52307;BME280;38249;48.920;12.882;2023-01-09T06:07:47;95572.97;;;6.15;60.15
52307;BME280;38249;48.920;12.882;2023-01-09T06:10:15;95575.44;;;6.29;60.24
52307;BME280;38249;48.920;12.882;2023-01-09T06:12:46;95568.00;;;6.35;60.15
52307;BME280;38249;48.920;12.882;2023-01-09T06:15:13;95577.47;;;6.24;60.19
52307;BME280;38249;48.920;12.882;2023-01-09T06:17:40;95568.03;;;6.26;59.94
52307;BME280;38249;48.920;12.882;2023-01-09T06:20:08;95578.41;;;6.28;60.22
52307;BME280;38249;48.920;12.882;2023-01-09T06:22:35;95587.13;;;6.16;60.01
52307;BME280;38249;48.920;12.882;2023-01-09T06:25:01;95581.31;;;6.14;60.00
52307;BME280;38249;48.920;12.882;2023-01-09T06:27:29;95580.91;;;6.03;60.59
52307;BME280;38249;48.920;12.882;2023-01-09T06:29:56;95582.34;;;5.92;60.61
52307;BME280;38249;48.920;12.882;2023-01-09T06:32:22;95574.47;;;5.95;60.49
52307;BME280;38249;48.920;12.882;2023-01-09T06:34:49;95580.50;;;5.84;60.76
52307;BME280;38249;48.920;12.882;2023-01-09T06:37:15;95584.09;;;5.88;60.68
52307;BME280;38249;48.920;12.882;2023-01-09T06:39:42;95575.88;;;5.93;60.43
52307;BME280;38249;48.920;12.882;2023-01-09T06:42:08;95591.91;;;6.02;60.51
52307;BME280;38249;48.920;12.882;2023-01-09T06:44:36;95590.59;;;6.16;60.39
52307;BME280;38249;48.920;12.882;2023-01-09T06:47:02;95601.31;;;6.08;60.23
52307;BME280;38249;48.920;12.882;2023-01-09T06:49:29;95603.19;;;6.07;60.26
52307;BME280;38249;48.920;12.882;2023-01-09T06:51:55;95608.84;;;6.14;60.19
52307;BME280;38249;48.920;12.882;2023-01-09T06:54:22;95618.72;;;6.14;60.13
52307;BME280;38249;48.920;12.882;2023-01-09T06:56:49;95624.41;;;6.12;60.20
52307;BME280;38249;48.920;12.882;2023-01-09T06:59:15;95625.66;;;6.15;60.13
52307;BME280;38249;48.920;12.882;2023-01-09T07:01:43;95625.59;;;6.32;60.00
52307;BME280;38249;48.920;12.882;2023-01-09T07:04:09;95630.03;;;6.20;59.82
52307;BME280;38249;48.920;12.882;2023-01-09T07:06:36;95642.47;;;6.24;59.95
52307;BME280;38249;48.920;12.882;2023-01-09T07:09:03;95643.19;;;6.33;59.71
52307;BME280;38249;48.920;12.882;2023-01-09T07:11:30;95660.03;;;6.25;59.87
52307;BME280;38249;48.920;12.882;2023-01-09T07:13:56;95664.03;;;6.10;60.19
52307;BME280;38249;48.920;12.882;2023-01-09T07:16:23;95669.28;;;5.98;60.50
52307;BME280;38249;48.920;12.882;2023-01-09T07:18:51;95684.50;;;6.06;60.23
52307;BME280;38249;48.920;12.882;2023-01-09T07:21:18;95680.13;;;5.84;60.57
52307;BME280;38249;48.920;12.882;2023-01-09T07:23:45;95686.56;;;5.83;60.47
52307;BME280;38249;48.920;12.882;2023-01-09T07:26:12;95694.75;;;5.87;60.48
52307;BME280;38249;48.920;12.882;2023-01-09T07:28:38;95694.91;;;5.90;60.29
52307;BME280;38249;48.920;12.882;2023-01-09T07:31:05;95686.44;;;5.88;60.23
52307;BME280;38249;48.920;12.882;2023-01-09T07:33:32;95698.53;;;5.86;60.17
52307;BME280;38249;48.920;12.882;2023-01-09T07:36:00;95700.56;;;5.89;60.17
52307;BME280;38249;48.920;12.882;2023-01-09T07:38:26;95707.63;;;5.85;60.17
52307;BME280;38249;48.920;12.882;2023-01-09T07:40:53;95702.91;;;5.81;59.97
52307;BME280;38249;48.920;12.882;2023-01-09T07:43:19;95702.63;;;5.74;60.07
52307;BME280;38249;48.920;12.882;2023-01-09T07:45:46;95718.03;;;5.77;59.92
52307;BME280;38249;48.920;12.882;2023-01-09T07:48:12;95715.81;;;5.79;59.92
52307;BME280;38249;48.920;12.882;2023-01-09T07:50:39;95707.03;;;5.79;59.88
52307;BME280;38249;48.920;12.882;2023-01-09T07:53:07;95710.31;;;5.93;59.92
52307;BME280;38249;48.920;12.882;2023-01-09T07:55:33;95722.41;;;5.91;59.68
52307;BME280;38249;48.920;12.882;2023-01-09T07:58:00;95725.22;;;5.94;59.76
52307;BME280;38249;48.920;12.882;2023-01-09T08:00:27;95726.78;;;6.04;59.76
52307;BME280;38249;48.920;12.882;2023-01-09T08:02:54;95734.03;;;6.04;59.64
52307;BME280;38249;48.920;12.882;2023-01-09T08:05:20;95734.78;;;6.04;59.53
52307;BME280;38249;48.920;12.882;2023-01-09T08:07:47;95732.44;;;6.03;59.70
52307;BME280;38249;48.920;12.882;2023-01-09T08:10:17;95731.63;;;6.20;59.60
52307;BME280;38249;48.920;12.882;2023-01-09T08:12:44;95743.59;;;6.13;59.28
52307;BME280;38249;48.920;12.882;2023-01-09T08:15:12;95747.38;;;6.12;59.32
52307;BME280;38249;48.920;12.882;2023-01-09T08:17:40;95735.22;;;6.24;59.54
52307;BME280;38249;48.920;12.882;2023-01-09T08:20:08;95747.19;;;6.26;59.28
52307;BME280;38249;48.920;12.882;2023-01-09T08:22:36;95750.66;;;6.18;59.33
52307;BME280;38249;48.920;12.882;2023-01-09T08:25:03;95752.22;;;6.19;59.36
52307;BME280;38249;48.920;12.882;2023-01-09T08:27:31;95761.66;;;6.34;59.35
52307;BME280;38249;48.920;12.882;2023-01-09T08:29:58;95756.16;;;6.22;59.02
52307;BME280;38249;48.920;12.882;2023-01-09T08:32:24;95767.94;;;6.21;59.35
52307;BME280;38249;48.920;12.882;2023-01-09T08:34:51;95770.16;;;6.27;59.23
52307;BME280;38249;48.920;12.882;2023-01-09T08:37:17;95767.31;;;6.24;59.22
52307;BME280;38249;48.920;12.882;2023-01-09T08:39:44;95773.47;;;6.24;59.12
52307;BME280;38249;48.920;12.882;2023-01-09T08:42:10;95784.47;;;6.14;59.39
52307;BME280;38249;48.920;12.882;2023-01-09T08:44:56;95787.47;;;6.21;59.24
52307;BME280;38249;48.920;12.882;2023-01-09T08:47:40;95781.47;;;6.15;59.14
52307;BME280;38249;48.920;12.882;2023-01-09T08:50:07;95786.22;;;6.27;59.15
52307;BME280;38249;48.920;12.882;2023-01-09T08:52:34;95787.13;;;6.31;59.07
52307;BME280;38249;48.920;12.882;2023-01-09T08:55:00;95784.59;;;6.35;59.15
52307;BME280;38249;48.920;12.882;2023-01-09T08:57:26;95790.63;;;6.14;59.23
52307;BME280;38249;48.920;12.882;2023-01-09T08:59:53;95787.31;;;6.17;59.27
52307;BME280;38249;48.920;12.882;2023-01-09T09:02:21;95790.25;;;6.42;59.20
52307;BME280;38249;48.920;12.882;2023-01-09T09:04:47;95793.25;;;6.41;59.07
52307;BME280;38249;48.920;12.882;2023-01-09T09:07:17;95798.56;;;6.49;58.67
52307;BME280;38249;48.920;12.882;2023-01-09T09:09:50;95805.19;;;6.43;58.96
52307;BME280;38249;48.920;12.882;2023-01-09T09:12:17;95814.00;;;6.35;59.37
52307;BME280;38249;48.920;12.882;2023-01-09T09:14:43;95823.59;;;6.53;nan
52307;BME280;38249;48.920;12.882;2023-01-09T09:17:28;95827.72;;;6.42;nan
52307;BME280;38249;48.920;12.882;2023-01-09T09:19:57;95829.75;;;6.19;nan
52307;BME280;38249;48.920;12.882;2023-01-09T09:22:23;95832.91;;;6.12;nan
52307;BME280;38249;48.920;12.882;2023-01-09T09:24:50;95839.53;;;6.15;nan
52307;BME280;38249;48.920;12.882;2023-01-09T09:27:17;95837.47;;;6.12;nan
52307;BME280;38249;48.920;12.882;2023-01-09T09:29:43;95832.44;;;6.28;nan
52307;BME280;38249;48.920;12.882;2023-01-09T09:32:10;95841.56;;;6.27;nan
52307;BME280;38249;48.920;12.882;2023-01-09T09:34:38;95836.47;;;6.51;nan
52307;BME280;38249;48.920;12.882;2023-01-09T09:37:04;95844.69;;;6.46;nan
52307;BME280;38249;48.920;12.882;2023-01-09T09:39:31;95842.00;;;6.55;nan
52307;BME280;38249;48.920;12.882;2023-01-09T09:42:12;95850.44;;;6.83;nan
52307;BME280;38249;48.920;12.882;2023-01-09T09:45:07;95854.81;;;6.88;nan
52307;BME280;38249;48.920;12.882;2023-01-09T09:47:45;95853.56;;;6.94;nan
52307;BME280;38249;48.920;12.882;2023-01-09T09:53:09;95859.88;;;6.81;nan
52307;BME280;38249;48.920;12.882;2023-01-09T09:55:38;95854.25;;;6.56;nan
52307;BME280;38249;48.920;12.882;2023-01-09T09:58:10;95873.28;;;6.72;nan
52307;BME280;38249;48.920;12.882;2023-01-09T10:00:38;95866.97;;;6.68;nan
52307;BME280;38249;48.920;12.882;2023-01-09T10:03:09;95867.16;;;6.71;nan
52307;BME280;38249;48.920;12.882;2023-01-09T10:05:40;95878.16;;;6.70;nan
52307;BME280;38249;48.920;12.882;2023-01-09T10:08:14;95867.59;;;6.73;nan
52307;BME280;38249;48.920;12.882;2023-01-09T10:10:48;95872.69;;;6.66;nan
52307;BME280;38249;48.920;12.882;2023-01-09T10:13:19;95875.97;;;6.63;nan
52307;BME280;38249;48.920;12.882;2023-01-09T10:16:10;95875.81;;;6.68;nan
52307;BME280;38249;48.920;12.882;2023-01-09T10:18:48;95873.59;;;6.70;nan
52307;BME280;38249;48.920;12.882;2023-01-09T10:21:22;95876.75;;;6.64;nan
52307;BME280;38249;48.920;12.882;2023-01-09T10:24:07;95882.88;;;6.82;nan
52307;BME280;38249;48.920;12.882;2023-01-09T10:26:40;95882.88;;;6.82;nan
52307;BME280;38249;48.920;12.882;2023-01-09T10:29:18;95876.41;;;6.83;nan
52307;BME280;38249;48.920;12.882;2023-01-09T10:31:58;95873.56;;;6.79;nan
52307;BME280;38249;48.920;12.882;2023-01-09T10:34:43;95887.09;;;6.91;nan
52307;BME280;38249;48.920;12.882;2023-01-09T10:37:15;95874.38;;;6.80;nan
52307;BME280;38249;48.920;12.882;2023-01-09T10:39:48;95881.03;;;6.65;nan
52307;BME280;38249;48.920;12.882;2023-01-09T10:42:19;95878.47;;;6.60;nan
52307;BME280;38249;48.920;12.882;2023-01-09T10:44:52;95876.91;;;6.76;nan
52307;BME280;38249;48.920;12.882;2023-01-09T10:47:24;95880.00;;;6.87;nan
52307;BME280;38249;48.920;12.882;2023-01-09T10:49:52;95892.31;;;6.88;nan
52307;BME280;38249;48.920;12.882;2023-01-09T10:52:25;95887.38;;;6.99;nan
52307;BME280;38249;48.920;12.882;2023-01-09T10:54:57;95889.44;;;6.93;nan
52307;BME280;38249;48.920;12.882;2023-01-09T10:57:40;95887.31;;;7.16;nan
52307;BME280;38249;48.920;12.882;2023-01-09T11:00:14;95893.31;;;7.22;nan
52307;BME280;38249;48.920;12.882;2023-01-09T11:02:41;95899.25;;;7.27;nan
52307;BME280;38249;48.920;12.882;2023-01-09T11:05:11;95902.47;;;7.12;nan
52307;BME280;38249;48.920;12.882;2023-01-09T11:07:41;95901.34;;;7.13;nan
52307;BME280;38249;48.920;12.882;2023-01-09T11:10:10;95896.50;;;7.06;nan
52307;BME280;38249;48.920;12.882;2023-01-09T11:12:37;95900.44;;;7.09;nan
52307;BME280;38249;48.920;12.882;2023-01-09T11:15:26;95898.63;;;7.31;nan
52307;BME280;38249;48.920;12.882;2023-01-09T11:18:18;95904.75;;;7.31;nan
52307;BME280;38249;48.920;12.882;2023-01-09T11:20:45;95891.44;;;7.05;nan
52307;BME280;38249;48.920;12.882;2023-01-09T11:23:40;95888.38;;;7.41;nan
52307;BME280;38249;48.920;12.882;2023-01-09T11:26:21;95885.03;;;7.44;nan
52307;BME280;38249;48.920;12.882;2023-01-09T11:29:04;95881.53;;;7.53;nan
52307;BME280;38249;48.920;12.882;2023-01-09T11:31:32;95886.66;;;7.37;nan
52307;BME280;38249;48.920;12.882;2023-01-09T11:33:58;95893.56;;;7.38;nan
52307;BME280;38249;48.920;12.882;2023-01-09T11:36:26;95896.22;;;7.47;nan
52307;BME280;38249;48.920;12.882;2023-01-09T11:38:55;95887.16;;;7.60;nan
52307;BME280;38249;48.920;12.882;2023-01-09T11:41:24;95888.59;;;7.57;nan
52307;BME280;38249;48.920;12.882;2023-01-09T11:43:54;95876.63;;;7.55;nan
52307;BME280;38249;48.920;12.882;2023-01-09T11:46:31;95882.59;;;7.60;nan
52307;BME280;38249;48.920;12.882;2023-01-09T11:48:59;95885.44;;;7.55;nan
52307;BME280;38249;48.920;12.882;2023-01-09T11:51:28;95883.84;;;7.63;nan
52307;BME280;38249;48.920;12.882;2023-01-09T11:54:02;95875.28;;;7.70;nan
52307;BME280;38249;48.920;12.882;2023-01-09T11:56:35;95866.78;;;7.68;nan
52307;BME280;38249;48.920;12.882;2023-01-09T11:59:08;95868.63;;;7.76;nan
52307;BME280;38249;48.920;12.882;2023-01-09T12:01:56;95869.34;;;7.85;nan
52307;BME280;38249;48.920;12.882;2023-01-09T12:04:29;95866.41;;;7.78;nan
52307;BME280;38249;48.920;12.882;2023-01-09T12:07:09;95876.81;;;7.79;nan
52307;BME280;38249;48.920;12.882;2023-01-09T12:09:48;95883.31;;;7.70;nan
52307;BME280;38249;48.920;12.882;2023-01-09T12:12:24;95888.44;;;7.54;nan
52307;BME280;38249;48.920;12.882;2023-01-09T12:15:04;95893.22;;;7.48;nan
52307;BME280;38249;48.920;12.882;2023-01-09T12:18:03;95899.47;;;7.61;nan
52307;BME280;38249;48.920;12.882;2023-01-09T12:20:38;95897.25;;;7.54;nan
52307;BME280;38249;48.920;12.882;2023-01-09T12:23:23;95901.22;;;7.57;nan
52307;BME280;38249;48.920;12.882;2023-01-09T12:26:04;95903.09;;;7.56;nan
52307;BME280;38249;48.920;12.882;2023-01-09T12:28:55;95900.28;;;7.53;nan
52307;BME280;38249;48.920;12.882;2023-01-09T12:31:38;95898.53;;;7.57;nan
52307;BME280;38249;48.920;12.882;2023-01-09T12:34:18;95905.47;;;7.58;nan
52307;BME280;38249;48.920;12.882;2023-01-09T12:36:52;95900.25;;;7.61;nan
52307;BME280;38249;48.920;12.882;2023-01-09T12:39:33;95905.09;;;7.68;nan
52307;BME280;38249;48.920;12.882;2023-01-09T12:42:15;95904.78;;;7.70;nan
52307;BME280;38249;48.920;12.882;2023-01-09T12:44:49;95900.69;;;7.63;nan
52307;BME280;38249;48.920;12.882;2023-01-09T12:47:37;95902.50;;;7.80;nan
52307;BME280;38249;48.920;12.882;2023-01-09T12:50:26;95903.94;;;7.78;nan
52307;BME280;38249;48.920;12.882;2023-01-09T12:53:05;95900.47;;;7.77;nan
52307;BME280;38249;48.920;12.882;2023-01-09T12:55:38;95911.84;;;7.74;nan
52307;BME280;38249;48.920;12.882;2023-01-09T12:58:15;95915.56;;;7.82;nan
52307;BME280;38249;48.920;12.882;2023-01-09T13:00:48;95911.31;;;7.81;nan
52307;BME280;38249;48.920;12.882;2023-01-09T13:03:19;95910.38;;;7.86;nan
52307;BME280;38249;48.920;12.882;2023-01-09T13:05:50;95912.56;;;7.83;nan
52307;BME280;38249;48.920;12.882;2023-01-09T13:08:22;95913.38;;;7.84;nan
52307;BME280;38249;48.920;12.882;2023-01-09T13:10:52;95919.38;;;7.81;nan
52307;BME280;38249;48.920;12.882;2023-01-09T13:13:24;95912.84;;;7.91;nan
52307;BME280;38249;48.920;12.882;2023-01-09T13:15:56;95915.72;;;7.86;nan
52307;BME280;38249;48.920;12.882;2023-01-09T13:18:29;95912.53;;;7.92;nan
52307;BME280;38249;48.920;12.882;2023-01-09T13:20:59;95909.09;;;7.83;nan
52307;BME280;38249;48.920;12.882;2023-01-09T13:23:29;95910.16;;;7.91;nan
52307;BME280;38249;48.920;12.882;2023-01-09T13:26:00;95907.03;;;7.89;nan
52307;BME280;38249;48.920;12.882;2023-01-09T13:28:31;95907.50;;;7.91;nan
52307;BME280;38249;48.920;12.882;2023-01-09T13:31:17;95906.19;;;7.97;nan